createdAt,value
2023-01-20T00:01:25.538Z,16.38
2023-01-20T00:03:54.216Z,16.27
2023-01-20T00:06:22.280Z,16.83
2023-01-20T00:08:53.133Z,17.40
2023-01-20T00:11:20.887Z,18.48
2023-01-20T00:13:48.018Z,19.25
2023-01-20T00:16:15.077Z,22.30
2023-01-20T00:18:41.799Z,21.58
2023-01-20T00:21:12.193Z,18.67
2023-01-20T00:23:40.854Z,19.60
2023-01-20T00:26:09.931Z,17.52
2023-01-20T00:28:37.201Z,20.05
2023-01-20T00:31:14.909Z,17.85
2023-01-20T00:33:42.382Z,15.68
2023-01-20T00:36:10.419Z,19.40
2023-01-20T00:38:37.335Z,16.73
2023-01-20T00:41:04.056Z,14.75
2023-01-20T00:43:30.767Z,14.43
2023-01-20T00:45:57.438Z,14.13
2023-01-20T00:48:24.070Z,15.93
2023-01-20T00:50:50.758Z,15.10
2023-01-20T00:53:17.950Z,14.43
2023-01-20T00:55:44.632Z,13.93
2023-01-20T00:58:11.208Z,13.48
2023-01-20T01:00:37.889Z,13.02
2023-01-20T01:03:05.665Z,13.45
2023-01-20T01:05:33.019Z,12.45
2023-01-20T01:07:59.734Z,11.57
2023-01-20T01:10:26.368Z,13.93
2023-01-20T01:12:52.969Z,12.10
2023-01-20T01:15:19.619Z,13.48
2023-01-20T01:17:46.339Z,13.95
2023-01-20T01:20:13.852Z,11.63
2023-01-20T01:22:40.765Z,11.23
2023-01-20T01:25:07.850Z,12.05
2023-01-20T01:27:34.503Z,12.18
2023-01-20T01:30:01.202Z,12.13
2023-01-20T01:32:28.398Z,12.00
2023-01-20T01:34:55.051Z,12.07
2023-01-20T01:37:21.631Z,12.55
2023-01-20T01:39:48.604Z,11.80
2023-01-20T01:42:18.223Z,12.07
2023-01-20T01:45:13.502Z,12.10
2023-01-20T01:47:46.397Z,12.63
2023-01-20T01:50:21.560Z,11.98
2023-01-20T01:52:52.715Z,12.27
2023-01-20T01:55:22.691Z,11.90
2023-01-20T01:57:51.636Z,11.85
2023-01-20T02:00:18.727Z,11.67
2023-01-20T02:02:45.679Z,11.73
2023-01-20T02:05:14.606Z,12.70
2023-01-20T02:07:45.331Z,12.38
2023-01-20T02:10:12.832Z,12.03
2023-01-20T02:12:40.973Z,13.48
2023-01-20T02:15:08.432Z,12.05
2023-01-20T02:17:53.951Z,13.20
2023-01-20T02:20:49.397Z,12.45
2023-01-20T02:23:34.368Z,12.53
2023-01-20T02:26:24.407Z,13.20
2023-01-20T02:29:09.358Z,12.80
2023-01-20T02:32:13.361Z,13.03
2023-01-20T02:34:42.739Z,12.37
2023-01-20T02:37:19.792Z,12.60
2023-01-20T02:39:46.299Z,13.80
2023-01-20T02:42:24.546Z,14.90
2023-01-20T02:45:04.303Z,13.50
2023-01-20T02:47:54.892Z,14.10
2023-01-20T02:50:29.388Z,12.80
2023-01-20T02:52:59.673Z,11.47
2023-01-20T02:55:34.884Z,13.05
2023-01-20T02:58:07.316Z,11.93
2023-01-20T03:00:51.931Z,12.98
2023-01-20T03:03:25.240Z,13.73
2023-01-20T03:05:59.390Z,13.73
2023-01-20T03:08:30.701Z,13.13
2023-01-20T03:11:07.543Z,12.47
2023-01-20T03:13:58.033Z,13.40
2023-01-20T03:16:27.893Z,13.05
2023-01-20T03:18:55.279Z,13.23
2023-01-20T03:21:22.354Z,12.97
2023-01-20T03:23:53.109Z,13.97
2023-01-20T03:26:22.622Z,12.63
2023-01-20T03:28:49.670Z,12.73
2023-01-20T03:31:22.013Z,13.02
2023-01-20T03:33:51.523Z,12.18
2023-01-20T03:36:19.768Z,11.70
2023-01-20T03:38:46.771Z,11.80
2023-01-20T03:41:35.100Z,11.35
2023-01-20T03:44:20.180Z,12.13
2023-01-20T03:46:59.111Z,12.10
2023-01-20T03:49:53.529Z,12.65
2023-01-20T03:52:47.869Z,13.23
2023-01-20T03:55:26.539Z,12.27
2023-01-20T03:58:04.644Z,11.97
2023-01-20T04:00:37.923Z,13.00
2023-01-20T04:03:19.682Z,12.77
2023-01-20T04:05:49.106Z,12.38
2023-01-20T04:08:17.997Z,12.90
2023-01-20T04:10:48.526Z,11.93
2023-01-20T04:13:15.902Z,12.45
2023-01-20T04:15:44.854Z,11.70
2023-01-20T04:18:22.752Z,13.00
2023-01-20T04:20:53.277Z,12.30
2023-01-20T04:23:25.163Z,12.93
2023-01-20T04:25:51.855Z,12.43
2023-01-20T04:28:18.743Z,12.10
2023-01-20T04:30:45.575Z,12.77
2023-01-20T04:33:12.358Z,12.87
2023-01-20T04:35:38.953Z,12.33
2023-01-20T04:38:06.595Z,12.83
2023-01-20T04:40:33.344Z,13.13
2023-01-20T04:43:00.048Z,13.23
2023-01-20T04:45:26.756Z,12.30
2023-01-20T04:47:53.403Z,13.10
2023-01-20T04:50:20.167Z,12.20
2023-01-20T04:52:46.921Z,12.80
2023-01-20T04:55:14.280Z,12.53
2023-01-20T04:57:41.198Z,12.80
2023-01-20T05:00:08.818Z,12.57
2023-01-20T05:02:35.540Z,13.87
2023-01-20T05:05:02.270Z,13.03
2023-01-20T05:07:29.190Z,13.33
2023-01-20T05:09:55.887Z,13.60
2023-01-20T05:12:23.022Z,13.70
2023-01-20T05:14:49.751Z,12.63
2023-01-20T05:17:16.371Z,13.30
2023-01-20T05:19:43.746Z,14.53
2023-01-20T05:22:10.523Z,14.13
2023-01-20T05:24:38.370Z,12.80
2023-01-20T05:27:04.944Z,13.23
2023-01-20T05:29:31.881Z,13.20
2023-01-20T05:31:58.815Z,13.02
2023-01-20T05:34:25.454Z,13.37
2023-01-20T05:36:55.039Z,13.60
2023-01-20T05:39:21.947Z,13.15
2023-01-20T05:41:48.877Z,13.07
2023-01-20T05:44:16.212Z,12.87
2023-01-20T05:46:42.972Z,14.00
2023-01-20T05:49:12.385Z,13.98
2023-01-20T05:51:38.945Z,13.37
2023-01-20T05:54:06.030Z,13.63
2023-01-20T05:56:32.669Z,13.40
2023-01-20T05:58:59.631Z,14.10
2023-01-20T06:01:26.817Z,15.20
2023-01-20T06:03:53.789Z,14.48
2023-01-20T06:06:21.062Z,14.13
2023-01-20T06:08:49.779Z,14.20
2023-01-20T06:11:17.917Z,13.57
2023-01-20T06:13:46.952Z,13.93
2023-01-20T06:16:13.806Z,14.67
2023-01-20T06:18:40.863Z,14.18
2023-01-20T06:21:07.494Z,14.00
2023-01-20T06:23:34.327Z,13.20
2023-01-20T06:26:06.621Z,14.27
2023-01-20T06:28:33.539Z,14.20
2023-01-20T06:31:11.946Z,13.33
2023-01-20T06:33:38.956Z,14.30
2023-01-20T06:36:07.014Z,14.03
2023-01-20T06:38:35.980Z,14.68
2023-01-20T06:41:05.699Z,14.57
2023-01-20T06:43:34.137Z,13.30
2023-01-20T06:46:06.410Z,13.60
2023-01-20T06:48:33.263Z,13.37
2023-01-20T06:51:05.756Z,13.55
2023-01-20T06:53:32.669Z,13.75
2023-01-20T06:56:00.342Z,11.73
2023-01-20T06:58:29.801Z,10.98
2023-01-20T07:00:57.909Z,10.82
2023-01-20T07:03:25.308Z,10.00
2023-01-20T07:06:03.082Z,9.50
2023-01-20T07:08:30.164Z,8.03
2023-01-20T07:10:57.254Z,7.88
2023-01-20T07:13:23.999Z,4.73
2023-01-20T07:15:51.077Z,3.83
2023-01-20T07:18:17.933Z,3.90
2023-01-20T07:20:44.499Z,4.10
2023-01-20T07:23:11.592Z,3.53
2023-01-20T07:25:39.697Z,5.40
2023-01-20T07:28:06.819Z,5.32
2023-01-20T07:30:33.478Z,4.95
2023-01-20T07:33:00.183Z,4.72
2023-01-20T07:35:26.951Z,4.65
2023-01-20T07:37:53.514Z,4.53
2023-01-20T07:40:20.855Z,2.30
2023-01-20T07:42:47.637Z,2.75
2023-01-20T07:45:14.720Z,2.60
2023-01-20T07:47:42.110Z,2.30
2023-01-20T07:50:09.365Z,2.83
2023-01-20T07:52:36.427Z,2.35
2023-01-20T07:55:03.084Z,1.90
2023-01-20T07:57:32.461Z,2.05
2023-01-20T07:59:59.059Z,3.55
2023-01-20T08:02:26.275Z,2.50
2023-01-20T08:04:53.015Z,2.40
2023-01-20T08:07:19.761Z,1.90
2023-01-20T08:09:48.335Z,2.38
2023-01-20T08:12:15.322Z,2.60
2023-01-20T08:14:42.682Z,2.10
2023-01-20T08:17:09.593Z,2.00
2023-01-20T08:19:36.634Z,2.15
2023-01-20T08:22:03.209Z,2.05
2023-01-20T08:24:30.045Z,1.75
2023-01-20T08:26:57.000Z,1.75
2023-01-20T08:29:23.576Z,2.20
2023-01-20T08:31:50.570Z,2.40
2023-01-20T08:34:18.772Z,2.10
2023-01-20T08:36:45.662Z,2.47
2023-01-20T08:39:14.579Z,2.08
2023-01-20T08:41:43.630Z,1.73
2023-01-20T08:44:11.780Z,2.05
2023-01-20T08:46:41.700Z,2.70
2023-01-20T08:49:14.542Z,5.75
2023-01-20T08:51:41.712Z,4.50
2023-01-20T08:54:08.621Z,2.00
2023-01-20T08:56:36.860Z,2.28
2023-01-20T08:59:03.993Z,2.25
2023-01-20T09:01:37.833Z,2.72
2023-01-20T09:04:07.316Z,1.52
2023-01-20T09:06:45.992Z,1.70
2023-01-20T09:09:15.886Z,2.08
2023-01-20T09:11:44.985Z,1.90
2023-01-20T09:14:12.055Z,1.55
2023-01-20T09:16:38.659Z,1.50
2023-01-20T09:19:05.411Z,1.65
2023-01-20T09:21:32.008Z,1.58
2023-01-20T09:23:58.584Z,1.75
2023-01-20T09:26:35.396Z,1.27
2023-01-20T09:29:09.769Z,1.70
2023-01-20T09:31:44.407Z,1.88
2023-01-20T09:34:19.527Z,1.60
2023-01-20T09:36:51.405Z,1.58
2023-01-20T09:39:36.590Z,1.95
2023-01-20T09:42:51.655Z,2.40
2023-01-20T09:45:36.743Z,1.98
2023-01-20T09:48:52.227Z,1.90
2023-01-20T09:51:53.055Z,1.65
2023-01-20T09:54:29.128Z,1.70
2023-01-20T09:57:00.708Z,1.60
2023-01-20T09:59:36.622Z,1.50
2023-01-20T10:02:12.615Z,1.83
2023-01-20T10:04:43.881Z,1.88
2023-01-20T10:07:10.872Z,1.70
2023-01-20T10:09:56.675Z,2.10
2023-01-20T10:12:40.714Z,1.88
2023-01-20T10:15:13.993Z,1.70
2023-01-20T10:17:51.272Z,2.35
2023-01-20T10:20:35.969Z,1.40
2023-01-20T10:23:16.878Z,2.05
2023-01-20T10:26:03.262Z,1.98
2023-01-20T10:28:35.162Z,2.22
2023-01-20T10:31:04.425Z,1.80
2023-01-20T10:33:44.178Z,1.77
2023-01-20T10:36:19.919Z,1.63
2023-01-20T10:39:05.993Z,1.92
2023-01-20T10:41:45.287Z,2.30
2023-01-20T10:44:13.709Z,1.90
2023-01-20T10:46:46.277Z,2.00
2023-01-20T10:49:22.574Z,1.90
2023-01-20T10:52:09.203Z,2.38
2023-01-20T10:54:54.142Z,2.10
2023-01-20T10:57:21.116Z,2.38
2023-01-20T10:59:55.984Z,1.98
2023-01-20T11:02:35.230Z,1.88
2023-01-20T11:05:19.167Z,2.05
2023-01-20T11:07:47.206Z,2.30
2023-01-20T11:10:21.843Z,1.90
2023-01-20T11:12:52.707Z,2.17
2023-01-20T11:15:23.895Z,2.25
2023-01-20T11:18:15.354Z,1.98
2023-01-20T11:20:50.354Z,2.20
2023-01-20T11:23:47.646Z,1.83
2023-01-20T11:26:28.051Z,2.22
2023-01-20T11:29:22.208Z,2.10
2023-01-20T11:31:54.328Z,2.10
2023-01-20T11:34:36.297Z,1.70
2023-01-20T11:37:06.485Z,1.80
2023-01-20T11:39:54.011Z,2.33
2023-01-20T11:42:24.846Z,1.80
2023-01-20T11:45:15.303Z,2.10
2023-01-20T11:47:45.323Z,2.30
2023-01-20T11:50:45.524Z,2.10
2023-01-20T11:53:22.041Z,2.25
2023-01-20T11:55:51.893Z,2.10
2023-01-20T11:58:26.303Z,2.15
2023-01-20T12:01:02.193Z,2.15
2023-01-20T12:03:41.402Z,2.30
2023-01-20T12:06:15.314Z,1.98
2023-01-20T12:08:58.551Z,2.00
2023-01-20T12:11:30.771Z,1.90
2023-01-20T12:14:23.348Z,2.08
2023-01-20T12:16:53.767Z,2.42
2023-01-20T12:19:26.779Z,2.17
2023-01-20T12:24:51.411Z,3.92
2023-01-20T12:27:25.733Z,3.65
2023-01-20T12:29:56.171Z,2.47
2023-01-20T12:32:22.870Z,3.25
2023-01-20T12:34:49.826Z,3.20
2023-01-20T12:37:27.730Z,2.80
2023-01-20T12:39:54.272Z,4.30
2023-01-20T12:42:38.780Z,2.60
2023-01-20T12:45:51.130Z,3.70
2023-01-20T12:48:49.815Z,3.22
2023-01-20T12:51:35.710Z,2.55
2023-01-20T12:54:35.769Z,2.35
2023-01-20T12:57:29.904Z,2.60
2023-01-20T13:00:34.968Z,2.25
2023-01-20T13:03:24.903Z,2.00
2023-01-20T13:06:03.593Z,2.15
2023-01-20T13:08:50.339Z,2.13
2023-01-20T13:11:40.955Z,2.00
2023-01-20T13:14:15.229Z,2.40
2023-01-20T13:16:42.884Z,2.13
2023-01-20T13:19:17.491Z,2.67
2023-01-20T13:21:44.822Z,2.10
2023-01-20T13:24:29.199Z,2.00
2023-01-20T13:27:00.638Z,2.20
2023-01-20T13:29:37.550Z,1.80
2023-01-20T13:32:24.954Z,1.70
2023-01-20T13:34:51.749Z,1.77
2023-01-20T13:37:30.909Z,2.03
2023-01-20T13:40:00.632Z,1.80
2023-01-20T13:42:36.500Z,1.65
2023-01-20T13:45:12.372Z,1.67
2023-01-20T13:47:53.134Z,1.70
2023-01-20T13:50:24.585Z,1.42
2023-01-20T13:52:52.153Z,1.33
2023-01-20T13:55:49.251Z,1.60
2023-01-20T13:58:33.131Z,1.35
2023-01-20T14:01:03.575Z,1.70
2023-01-20T14:03:36.396Z,1.35
2023-01-20T14:06:12.531Z,1.60
2023-01-20T14:08:50.949Z,1.50
2023-01-20T14:11:21.950Z,1.33
2023-01-20T14:13:54.005Z,1.60
2023-01-20T14:16:27.447Z,1.67
2023-01-20T14:18:57.216Z,1.20
2023-01-20T14:21:26.111Z,1.50
2023-01-20T14:23:54.511Z,1.58
2023-01-20T14:26:25.193Z,1.25
2023-01-20T14:28:57.940Z,1.30
2023-01-20T14:31:45.525Z,1.27
2023-01-20T14:34:22.543Z,1.08
2023-01-20T14:36:49.519Z,1.50
2023-01-20T14:39:25.484Z,1.70
2023-01-20T14:41:55.401Z,1.42
2023-01-20T14:44:25.850Z,1.30
2023-01-20T14:46:55.594Z,1.40
2023-01-20T14:49:28.563Z,1.20
2023-01-20T14:51:55.717Z,1.30
2023-01-20T14:54:45.119Z,1.35
2023-01-20T14:57:27.528Z,1.25
2023-01-20T15:00:17.436Z,2.80
2023-01-20T15:03:04.985Z,1.88
2023-01-20T15:05:39.068Z,1.50
2023-01-20T15:08:11.721Z,1.08
2023-01-20T15:13:23.401Z,1.50
2023-01-20T15:15:50.274Z,1.17
2023-01-20T15:18:22.405Z,1.10
2023-01-20T15:21:00.941Z,1.57
2023-01-20T15:23:42.172Z,2.08
2023-01-20T15:26:18.777Z,2.33
2023-01-20T15:28:45.806Z,1.85
2023-01-20T15:31:17.329Z,1.73
2023-01-20T15:33:44.718Z,1.60
2023-01-20T15:36:23.782Z,1.50
2023-01-20T15:38:51.099Z,1.70
2023-01-20T15:41:19.084Z,1.65
2023-01-20T15:43:46.133Z,1.75
2023-01-20T15:46:15.141Z,1.63
2023-01-20T15:48:42.531Z,1.90
2023-01-20T15:51:27.603Z,1.70
2023-01-20T15:53:54.546Z,1.45
2023-01-20T15:56:26.016Z,1.58
2023-01-20T15:58:53.961Z,1.40
2023-01-20T16:01:26.139Z,2.45
2023-01-20T16:03:56.763Z,2.42
2023-01-20T16:06:29.578Z,6.50
2023-01-20T16:08:56.992Z,4.60
2023-01-20T16:11:23.685Z,3.15
2023-01-20T16:13:50.372Z,2.63
2023-01-20T16:16:19.629Z,5.95
2023-01-20T16:18:47.235Z,5.60
2023-01-20T16:21:16.555Z,5.40
2023-01-20T16:23:44.238Z,4.70
2023-01-20T16:26:23.562Z,4.35
2023-01-20T16:28:52.993Z,3.60
2023-01-20T16:31:20.897Z,3.75
2023-01-20T16:33:48.171Z,4.75
2023-01-20T16:36:17.769Z,3.78
2023-01-20T16:38:45.464Z,3.90
2023-01-20T16:41:21.403Z,4.30
2023-01-20T16:43:49.455Z,4.32
2023-01-20T16:46:22.168Z,5.13
2023-01-20T16:48:49.123Z,3.63
2023-01-20T16:51:21.624Z,2.92
2023-01-20T16:53:48.998Z,3.38
2023-01-20T16:56:21.997Z,3.25
2023-01-20T16:58:51.647Z,4.07
2023-01-20T17:01:24.928Z,4.50
2023-01-20T17:03:55.439Z,4.50
2023-01-20T17:06:27.835Z,3.88
2023-01-20T17:09:01.698Z,3.63
2023-01-20T17:11:40.208Z,2.95
2023-01-20T17:14:09.605Z,3.13
2023-01-20T17:16:38.057Z,3.83
2023-01-20T17:19:05.531Z,2.90
2023-01-20T17:21:34.744Z,3.20
2023-01-20T17:24:04.545Z,3.45
2023-01-20T17:26:31.737Z,3.38
2023-01-20T17:29:04.273Z,5.53
2023-01-20T17:31:34.645Z,3.05
2023-01-20T17:34:01.588Z,3.78
2023-01-20T17:36:29.607Z,4.00
2023-01-20T17:38:57.748Z,3.88
2023-01-20T17:41:24.986Z,4.05
2023-01-20T17:43:51.751Z,5.30
2023-01-20T17:46:23.540Z,4.75
2023-01-20T17:48:51.050Z,5.03
2023-01-20T17:51:20.539Z,4.32
2023-01-20T17:53:48.501Z,4.55
2023-01-20T17:56:16.868Z,4.38
2023-01-20T17:58:46.037Z,4.57
2023-01-20T18:01:18.379Z,4.07
2023-01-20T18:03:45.927Z,4.00
2023-01-20T18:06:15.101Z,4.45
2023-01-20T18:08:42.697Z,3.95
2023-01-20T18:11:13.008Z,3.90
2023-01-20T18:13:40.321Z,3.67
2023-01-20T18:16:10.832Z,3.10
2023-01-20T18:18:43.208Z,4.07
2023-01-20T18:21:13.482Z,3.65
2023-01-20T18:23:41.103Z,3.85
2023-01-20T18:26:09.760Z,3.63
2023-01-20T18:28:36.899Z,3.80
2023-01-20T18:31:10.544Z,4.53
2023-01-20T18:33:44.703Z,4.35
2023-01-20T18:36:14.993Z,3.95
2023-01-20T18:38:45.080Z,4.07
2023-01-20T18:41:13.715Z,3.95
2023-01-20T18:43:41.434Z,3.58
2023-01-20T18:46:10.610Z,3.53
2023-01-20T18:48:39.339Z,3.22
2023-01-20T18:51:07.424Z,3.45
2023-01-20T18:53:34.823Z,2.53
2023-01-20T18:56:04.036Z,2.35
2023-01-20T18:58:30.710Z,1.98
2023-01-20T19:01:07.136Z,2.83
2023-01-20T19:03:36.250Z,3.70
2023-01-20T19:06:13.082Z,3.08
2023-01-20T19:08:41.031Z,2.70
2023-01-20T19:11:15.284Z,3.00
2023-01-20T19:13:43.606Z,2.90
2023-01-20T19:16:12.784Z,2.67
2023-01-20T19:18:41.193Z,3.00
2023-01-20T19:21:11.553Z,2.95
2023-01-20T19:23:39.232Z,2.58
2023-01-20T19:26:08.968Z,2.97
2023-01-20T19:28:36.344Z,3.22
2023-01-20T19:31:12.419Z,3.92
2023-01-20T19:33:40.654Z,3.95
2023-01-20T19:36:13.402Z,4.28
2023-01-20T19:41:27.828Z,3.55
2023-01-20T19:43:57.610Z,4.25
2023-01-20T19:46:30.136Z,4.10
2023-01-20T19:48:58.122Z,3.65
2023-01-20T19:51:26.180Z,3.03
2023-01-20T19:53:57.764Z,3.15
2023-01-20T19:56:26.915Z,2.72
2023-01-20T19:58:54.822Z,3.25
2023-01-20T20:01:22.791Z,3.10
2023-01-20T20:03:52.102Z,3.17
2023-01-20T20:06:36.591Z,3.00
2023-01-20T20:09:10.354Z,3.20
2023-01-20T20:11:37.677Z,3.20
2023-01-20T20:14:06.807Z,3.60
2023-01-20T20:16:35.804Z,3.80
2023-01-20T20:19:04.517Z,3.75
2023-01-20T20:21:31.652Z,3.75
2023-01-20T20:24:01.633Z,4.07
2023-01-20T20:26:34.652Z,4.53
2023-01-20T20:31:30.266Z,3.78
2023-01-20T20:34:01.909Z,4.97
2023-01-20T20:36:32.361Z,4.15
2023-01-20T20:39:01.571Z,4.43
2023-01-20T20:41:31.600Z,3.30
2023-01-20T20:44:00.472Z,3.10
2023-01-20T20:46:28.856Z,3.50
2023-01-20T20:49:01.336Z,3.60
2023-01-20T20:51:32.088Z,4.22
2023-01-20T20:54:01.855Z,4.40
2023-01-20T20:56:32.986Z,4.05
2023-01-20T20:59:03.190Z,3.83
2023-01-20T21:01:33.615Z,4.07
2023-01-20T21:04:01.454Z,4.60
2023-01-20T21:06:29.608Z,4.90
2023-01-20T21:08:56.760Z,5.25
2023-01-20T21:11:24.945Z,4.72
2023-01-20T21:13:52.604Z,5.15
2023-01-20T21:16:22.502Z,5.07
2023-01-20T21:18:55.229Z,4.78
2023-01-20T21:21:23.903Z,4.35
2023-01-20T21:23:53.008Z,3.65
2023-01-20T21:26:21.091Z,2.95
2023-01-20T21:28:49.600Z,3.10
2023-01-20T21:31:21.250Z,3.30
2023-01-20T21:33:53.750Z,3.25
2023-01-20T21:36:21.449Z,2.63
2023-01-20T21:38:48.560Z,2.80
2023-01-20T21:41:16.410Z,1.90
2023-01-20T21:44:04.171Z,2.28
2023-01-20T21:46:39.394Z,2.30
2023-01-20T21:49:26.746Z,2.50
2023-01-20T21:52:13.437Z,1.70
2023-01-20T21:54:41.206Z,1.70
2023-01-20T21:57:08.391Z,1.83
2023-01-20T21:59:35.676Z,1.38
2023-01-20T22:02:02.340Z,1.55
2023-01-20T22:04:29.612Z,1.60
2023-01-20T22:06:56.687Z,1.42
2023-01-20T22:09:23.770Z,1.48
2023-01-20T22:11:50.875Z,1.40
2023-01-20T22:14:17.743Z,1.48
2023-01-20T22:16:44.531Z,1.35
2023-01-20T22:19:14.228Z,1.33
2023-01-20T22:21:40.952Z,1.60
2023-01-20T22:24:07.841Z,1.50
2023-01-20T22:26:34.970Z,1.20
2023-01-20T22:29:01.611Z,1.70
2023-01-20T22:31:30.096Z,1.38
2023-01-20T22:33:58.478Z,1.17
2023-01-20T22:36:25.511Z,1.48
2023-01-20T22:38:53.146Z,1.40
2023-01-20T22:41:20.716Z,1.70
2023-01-20T22:43:48.292Z,1.55
2023-01-20T22:46:17.394Z,1.50
2023-01-20T22:48:45.037Z,1.30
2023-01-20T22:51:14.809Z,1.40
2023-01-20T22:53:42.171Z,1.58
2023-01-20T22:56:12.999Z,1.40
2023-01-20T22:58:40.413Z,1.30
2023-01-20T23:01:19.311Z,1.38
2023-01-20T23:03:46.932Z,1.50
2023-01-20T23:06:14.182Z,2.05
2023-01-20T23:08:41.852Z,1.27
2023-01-20T23:11:11.390Z,1.40
2023-01-20T23:13:38.906Z,1.58
2023-01-20T23:16:09.996Z,1.58
2023-01-20T23:18:36.846Z,1.85
2023-01-20T23:21:05.829Z,1.48
2023-01-20T23:23:33.405Z,1.42
2023-01-20T23:26:12.138Z,2.38
2023-01-20T23:28:38.943Z,1.92
2023-01-20T23:31:07.545Z,1.60
2023-01-20T23:33:34.980Z,1.70
2023-01-20T23:36:07.404Z,1.73
2023-01-20T23:38:34.880Z,1.85
2023-01-20T23:41:02.446Z,2.75
2023-01-20T23:43:30.636Z,2.22
2023-01-20T23:46:02.366Z,1.90
2023-01-20T23:48:29.491Z,3.70
2023-01-20T23:50:59.710Z,2.30
2023-01-20T23:53:28.034Z,1.70
2023-01-20T23:56:23.877Z,1.50
2023-01-20T23:58:51.361Z,1.48
